• Join FlightAware (Why Join?)
  • Login
  • US Flag 
02:03AM EDT


 

Airport Tracker/Info


-or-


 

Live Flight TrackerFlight Track Log ✈ N319EE ✈ 11-Jun-2014 ✈ KBGM - KROC

Flight Track Log - Related Links

Times and Time Zones

All times are in EDT time to prevent confusion due to time zone crossing. See the N319EE flight status page for this flight to view local times or setup timezone preferences in your user account.

Time Position Orientation Groundspeed Altitude Reporting Facility
EDT Latitude Longitude Course Direction KTS MPH feet Rate Location/Type
07:03AM 42.1675 -75.9750 307° West 148 170 3,800  Level New York Center
07:04AM 42.1839 -76.0264 293° West 187 215 5,900 2,040 Climbing New York Center
07:05AM 42.2128 -76.0792 306° West 187 215 7,900 1,860 Climbing New York Center
07:06AM 42.2419 -76.1264 310° West 176 203 9,700 1,020 Climbing New York Center
07:07AM 42.2786 -76.1911 307° West 178 205 10,000 120 Climbing New York Center
07:08AM 42.3582 -76.2619 307° West  Level FlightAware Approximate
07:08AM 42.3153 -76.2531 309° West 209 241 10,000  Level New York Center
07:09AM 42.3578 -76.3211 310° West 232 267 10,000  Level New York Center
07:10AM 42.3983 -76.3919 308° West 238 274 10,000 -60 Level New York Center
07:11AM 42.4386 -76.4628 308° West 238 274 9,900 -60 Descending New York Center
07:12AM 42.4789 -76.5308 309° West 238 274 9,900  Level New York Center
07:13AM 42.5192 -76.6019 308° West 238 274 9,900  Level New York Center
07:14AM 42.5597 -76.6703 309° West 238 274 10,000  Climbing New York Center
07:15AM 42.6111 -76.7644 307° West 236 272 9,900 -120 Descending Cleveland Center
07:15AM 42.6267 -76.7942 305° West 237 273 9,900 60 Level Cleveland Center
07:16AM 42.6511 -76.8336 310° West 236 272 10,000 60 Climbing Cleveland Center
07:16AM 42.6700 -76.8653 309° West 232 267 10,000 -600 Level Cleveland Center
07:17AM 42.6908 -76.9042 306° West 236 272 9,400 -1,140 Descending Cleveland Center
07:17AM 42.7108 -76.9386 308° West 251 289 8,900 -1,260 Descending Cleveland Center
07:18AM 42.7439 -76.9969 308° West 255 293 8,100 -1,020 Descending Cleveland Center
07:18AM 42.7550 -77.0189 305° West 261 300 7,900 -1,020 Descending Cleveland Center
07:19AM 42.7817 -77.0808 300° West 261 300 7,100 -1,140 Descending Cleveland Center
07:19AM 42.7900 -77.1025 298° West 260 299 6,800 -1,380 Descending Cleveland Center
07:20AM 42.8175 -77.1644 301° West 260 299 5,700 -1,320 Descending Cleveland Center
07:20AM 42.8269 -77.1869 300° West 260 299 5,500 -900 Descending Cleveland Center
07:21AM 42.8542 -77.2489 301° West 260 299 4,800 -1,020 Descending Cleveland Center
07:21AM 42.8642 -77.2714 301° West 260 299 4,500 -720 Descending Cleveland Center
07:22AM 42.9011 -77.3558 301° West 258 297 4,000 -600 Descending Cleveland Center
07:23AM 42.9400 -77.4411 302° West 251 289 3,400 -720 Descending Cleveland Center
07:24AM 42.9736 -77.5119 303° West 256 295 2,700 -480 Descending Cleveland Center
07:25AM 43.0100 -77.5944 301° West 256 295 2,500 -300 Descending Cleveland Center
07:26AM 43.0561 -77.6558 316° Northwest 247 284 2,100 -660 Descending Cleveland Center
07:27AM 43.0994 -77.6975 325° Northwest 215 247 1,200 -780 Descending Cleveland Center
07:28AM 43.1197 -77.6617 52° Northeast 160 184 600 -600 Descending Cleveland Center